sensor_id;sensor_type;location;lat;lon;timestamp;pressure;altitude;pressure_sealevel;temperature;humidity
81299;BME280;70766;53.170;18.160;2024-01-16T00:01:02;99362.09;;;-3.25;70.57
81299;BME280;70766;53.170;18.160;2024-01-16T00:03:43;99363.92;;;-3.34;69.30
81299;BME280;70766;53.170;18.160;2024-01-16T00:06:13;99370.44;;;-3.39;69.02
81299;BME280;70766;53.170;18.160;2024-01-16T00:08:41;99378.48;;;-3.43;69.63
81299;BME280;70766;53.170;18.160;2024-01-16T00:11:09;99381.02;;;-3.49;68.65
81299;BME280;70766;53.170;18.160;2024-01-16T00:13:38;99393.20;;;-3.50;69.32
81299;BME280;70766;53.170;18.160;2024-01-16T00:16:06;99398.34;;;-3.55;69.82
81299;BME280;70766;53.170;18.160;2024-01-16T00:18:37;99399.45;;;-3.59;70.10
81299;BME280;70766;53.170;18.160;2024-01-16T00:21:05;99402.06;;;-3.62;70.54
81299;BME280;70766;53.170;18.160;2024-01-16T00:23:33;99406.55;;;-3.63;70.70
81299;BME280;70766;53.170;18.160;2024-01-16T00:26:01;99410.92;;;-3.63;71.26
81299;BME280;70766;53.170;18.160;2024-01-16T00:28:33;99416.09;;;-3.64;70.85
81299;BME280;70766;53.170;18.160;2024-01-16T00:31:07;99423.11;;;-3.66;70.38
81299;BME280;70766;53.170;18.160;2024-01-16T00:33:36;99431.98;;;-3.69;71.12
81299;BME280;70766;53.170;18.160;2024-01-16T00:36:04;99433.35;;;-3.73;71.26
81299;BME280;70766;53.170;18.160;2024-01-16T00:38:33;99436.80;;;-3.77;71.31
81299;BME280;70766;53.170;18.160;2024-01-16T00:41:01;99441.62;;;-3.80;71.30
81299;BME280;70766;53.170;18.160;2024-01-16T00:43:30;99448.08;;;-3.81;71.73
81299;BME280;70766;53.170;18.160;2024-01-16T00:45:59;99452.44;;;-3.81;71.69
81299;BME280;70766;53.170;18.160;2024-01-16T00:48:27;99456.73;;;-3.82;71.92
81299;BME280;70766;53.170;18.160;2024-01-16T00:50:55;99456.89;;;-3.87;72.66
81299;BME280;70766;53.170;18.160;2024-01-16T00:53:23;99455.64;;;-3.93;73.06
81299;BME280;70766;53.170;18.160;2024-01-16T00:55:51;99466.61;;;-3.99;72.65
81299;BME280;70766;53.170;18.160;2024-01-16T00:58:22;99474.81;;;-4.04;72.34
81299;BME280;70766;53.170;18.160;2024-01-16T01:00:50;99478.92;;;-4.08;73.13
81299;BME280;70766;53.170;18.160;2024-01-16T01:03:18;99475.73;;;-4.10;73.08
81299;BME280;70766;53.170;18.160;2024-01-16T01:05:46;99477.46;;;-4.11;72.73
81299;BME280;70766;53.170;18.160;2024-01-16T01:08:14;99479.68;;;-4.12;73.19
81299;BME280;70766;53.170;18.160;2024-01-16T01:10:42;99487.05;;;-4.15;73.84
81299;BME280;70766;53.170;18.160;2024-01-16T01:13:11;99492.75;;;-4.18;74.12
81299;BME280;70766;53.170;18.160;2024-01-16T01:15:39;99499.59;;;-4.20;74.35
81299;BME280;70766;53.170;18.160;2024-01-16T01:18:07;99503.09;;;-4.20;74.69
81299;BME280;70766;53.170;18.160;2024-01-16T01:20:35;99509.21;;;-4.20;75.03
81299;BME280;70766;53.170;18.160;2024-01-16T01:23:03;99514.91;;;-4.19;74.98
81299;BME280;70766;53.170;18.160;2024-01-16T01:25:32;99513.59;;;-4.20;74.88
81299;BME280;70766;53.170;18.160;2024-01-16T01:28:00;99522.31;;;-4.17;74.67
81299;BME280;70766;53.170;18.160;2024-01-16T01:30:28;99524.67;;;-4.16;74.97
81299;BME280;70766;53.170;18.160;2024-01-16T01:32:56;99520.77;;;-4.14;74.19
81299;BME280;70766;53.170;18.160;2024-01-16T01:35:24;99528.70;;;-4.16;74.65
81299;BME280;70766;53.170;18.160;2024-01-16T01:37:53;99531.09;;;-4.22;74.21
81299;BME280;70766;53.170;18.160;2024-01-16T01:40:21;99532.86;;;-4.26;74.27
81299;BME280;70766;53.170;18.160;2024-01-16T01:42:49;99535.29;;;-4.30;74.92
81299;BME280;70766;53.170;18.160;2024-01-16T01:45:17;99535.73;;;-4.36;74.73
81299;BME280;70766;53.170;18.160;2024-01-16T01:47:45;99537.80;;;-4.41;74.68
81299;BME280;70766;53.170;18.160;2024-01-16T01:50:14;99542.34;;;-4.45;74.56
81299;BME280;70766;53.170;18.160;2024-01-16T01:52:43;99548.75;;;-4.47;74.51
81299;BME280;70766;53.170;18.160;2024-01-16T01:55:13;99546.61;;;-4.49;73.32
81299;BME280;70766;53.170;18.160;2024-01-16T01:57:42;99556.54;;;-4.53;74.13
81299;BME280;70766;53.170;18.160;2024-01-16T02:00:11;99559.39;;;-4.57;73.95
81299;BME280;70766;53.170;18.160;2024-01-16T02:02:41;99566.77;;;-4.59;73.49
81299;BME280;70766;53.170;18.160;2024-01-16T02:05:10;99579.51;;;-4.61;73.44
81299;BME280;70766;53.170;18.160;2024-01-16T02:07:39;99582.39;;;-4.63;73.68
81299;BME280;70766;53.170;18.160;2024-01-16T02:10:07;99588.45;;;-4.63;73.29
81299;BME280;70766;53.170;18.160;2024-01-16T02:12:35;99589.34;;;-4.62;73.45
81299;BME280;70766;53.170;18.160;2024-01-16T02:15:04;99592.09;;;-4.61;74.48
81299;BME280;70766;53.170;18.160;2024-01-16T02:17:32;99593.95;;;-4.62;74.27
81299;BME280;70766;53.170;18.160;2024-01-16T02:20:01;99601.48;;;-4.62;74.17
81299;BME280;70766;53.170;18.160;2024-01-16T02:22:31;99601.59;;;-4.62;73.33
81299;BME280;70766;53.170;18.160;2024-01-16T02:25:01;99606.63;;;-4.60;73.30
81299;BME280;70766;53.170;18.160;2024-01-16T02:27:29;99609.64;;;-4.60;73.99
81299;BME280;70766;53.170;18.160;2024-01-16T02:29:57;99619.91;;;-4.62;73.06
81299;BME280;70766;53.170;18.160;2024-01-16T02:32:25;99621.48;;;-4.60;72.60
81299;BME280;70766;53.170;18.160;2024-01-16T02:34:53;99626.64;;;-4.63;73.22
81299;BME280;70766;53.170;18.160;2024-01-16T02:37:21;99630.48;;;-4.70;73.37
81299;BME280;70766;53.170;18.160;2024-01-16T02:39:50;99630.11;;;-4.74;73.51
81299;BME280;70766;53.170;18.160;2024-01-16T02:42:19;99633.15;;;-4.80;73.57
81299;BME280;70766;53.170;18.160;2024-01-16T02:44:47;99635.88;;;-4.85;73.42
81299;BME280;70766;53.170;18.160;2024-01-16T02:47:15;99639.29;;;-4.87;73.81
81299;BME280;70766;53.170;18.160;2024-01-16T02:49:43;99639.36;;;-4.90;73.40
81299;BME280;70766;53.170;18.160;2024-01-16T02:52:11;99642.40;;;-4.90;73.41
81299;BME280;70766;53.170;18.160;2024-01-16T02:54:39;99642.73;;;-4.90;73.62
81299;BME280;70766;53.170;18.160;2024-01-16T02:57:07;99646.98;;;-4.91;73.53
81299;BME280;70766;53.170;18.160;2024-01-16T02:59:35;99648.84;;;-4.92;73.83
81299;BME280;70766;53.170;18.160;2024-01-16T03:02:03;99649.73;;;-4.90;73.79
81299;BME280;70766;53.170;18.160;2024-01-16T03:04:31;99652.11;;;-4.90;74.21
81299;BME280;70766;53.170;18.160;2024-01-16T03:06:59;99657.61;;;-4.91;74.46
81299;BME280;70766;53.170;18.160;2024-01-16T03:09:27;99657.98;;;-4.93;74.38
81299;BME280;70766;53.170;18.160;2024-01-16T03:11:55;99664.13;;;-4.95;74.50
81299;BME280;70766;53.170;18.160;2024-01-16T03:14:23;99663.86;;;-4.97;74.68
81299;BME280;70766;53.170;18.160;2024-01-16T03:16:52;99669.88;;;-5.00;74.70
81299;BME280;70766;53.170;18.160;2024-01-16T03:19:20;99671.21;;;-5.01;74.70
81299;BME280;70766;53.170;18.160;2024-01-16T03:21:48;99677.00;;;-5.01;74.96
81299;BME280;70766;53.170;18.160;2024-01-16T03:24:17;99675.88;;;-5.02;74.36
81299;BME280;70766;53.170;18.160;2024-01-16T03:26:45;99675.92;;;-5.01;74.47
81299;BME280;70766;53.170;18.160;2024-01-16T03:29:13;99677.26;;;-5.00;74.43
81299;BME280;70766;53.170;18.160;2024-01-16T03:31:41;99677.55;;;-5.00;74.62
81299;BME280;70766;53.170;18.160;2024-01-16T03:34:09;99683.88;;;-4.98;74.02
81299;BME280;70766;53.170;18.160;2024-01-16T03:36:38;99693.73;;;-4.98;74.12
81299;BME280;70766;53.170;18.160;2024-01-16T03:39:06;99685.80;;;-4.99;74.12
81299;BME280;70766;53.170;18.160;2024-01-16T03:41:34;99689.98;;;-5.00;74.13
81299;BME280;70766;53.170;18.160;2024-01-16T03:44:02;99692.02;;;-5.03;74.48
81299;BME280;70766;53.170;18.160;2024-01-16T03:46:30;99693.26;;;-5.09;74.98
81299;BME280;70766;53.170;18.160;2024-01-16T03:48:58;99694.70;;;-5.11;74.90
81299;BME280;70766;53.170;18.160;2024-01-16T03:51:27;99693.18;;;-5.13;75.07
81299;BME280;70766;53.170;18.160;2024-01-16T03:53:55;99698.05;;;-5.16;75.32
81299;BME280;70766;53.170;18.160;2024-01-16T03:56:23;99698.94;;;-5.20;75.70
81299;BME280;70766;53.170;18.160;2024-01-16T03:58:51;99703.67;;;-5.24;76.11
81299;BME280;70766;53.170;18.160;2024-01-16T04:01:32;99712.27;;;-5.29;75.98
81299;BME280;70766;53.170;18.160;2024-01-16T04:04:00;99719.52;;;-5.36;76.22
81299;BME280;70766;53.170;18.160;2024-01-16T04:06:29;99725.08;;;-5.43;76.66
81299;BME280;70766;53.170;18.160;2024-01-16T04:08:59;99720.09;;;-5.50;77.08
81299;BME280;70766;53.170;18.160;2024-01-16T04:11:27;99714.86;;;-5.57;77.20
81299;BME280;70766;53.170;18.160;2024-01-16T04:13:56;99713.45;;;-5.64;77.89
81299;BME280;70766;53.170;18.160;2024-01-16T04:16:24;99713.98;;;-5.68;77.80
81299;BME280;70766;53.170;18.160;2024-01-16T04:18:54;99715.27;;;-5.71;78.00
81299;BME280;70766;53.170;18.160;2024-01-16T04:21:22;99717.77;;;-5.71;77.76
81299;BME280;70766;53.170;18.160;2024-01-16T04:23:50;99721.52;;;-5.74;77.58
81299;BME280;70766;53.170;18.160;2024-01-16T04:26:19;99725.48;;;-5.79;77.48
81299;BME280;70766;53.170;18.160;2024-01-16T04:28:47;99729.82;;;-5.84;77.92
81299;BME280;70766;53.170;18.160;2024-01-16T04:31:15;99730.79;;;-5.88;78.03
81299;BME280;70766;53.170;18.160;2024-01-16T04:33:46;99741.33;;;-5.91;78.32
81299;BME280;70766;53.170;18.160;2024-01-16T04:36:17;99748.67;;;-5.93;77.97
81299;BME280;70766;53.170;18.160;2024-01-16T04:38:45;99747.20;;;-5.94;77.93
81299;BME280;70766;53.170;18.160;2024-01-16T04:41:18;99755.57;;;-6.00;77.72
81299;BME280;70766;53.170;18.160;2024-01-16T04:43:48;99761.73;;;-6.08;77.79
81299;BME280;70766;53.170;18.160;2024-01-16T04:46:17;99762.77;;;-6.15;77.96
81299;BME280;70766;53.170;18.160;2024-01-16T04:48:46;99754.08;;;-6.23;77.94
81299;BME280;70766;53.170;18.160;2024-01-16T04:51:14;99749.98;;;-6.31;77.75
81299;BME280;70766;53.170;18.160;2024-01-16T04:53:42;99761.70;;;-6.35;79.54
81299;BME280;70766;53.170;18.160;2024-01-16T04:56:12;99767.10;;;-6.41;79.56
81299;BME280;70766;53.170;18.160;2024-01-16T04:58:40;99768.80;;;-6.48;78.81
81299;BME280;70766;53.170;18.160;2024-01-16T05:01:08;99772.23;;;-6.53;78.33
81299;BME280;70766;53.170;18.160;2024-01-16T05:03:36;99769.67;;;-6.61;78.22
81299;BME280;70766;53.170;18.160;2024-01-16T05:06:15;99782.33;;;-6.70;78.23
81299;BME280;70766;53.170;18.160;2024-01-16T05:08:43;99789.71;;;-6.78;78.65
81299;BME280;70766;53.170;18.160;2024-01-16T05:11:12;99800.68;;;-6.84;78.39
81299;BME280;70766;53.170;18.160;2024-01-16T05:13:40;99799.14;;;-6.88;78.70
81299;BME280;70766;53.170;18.160;2024-01-16T05:16:09;99801.34;;;-6.93;78.82
81299;BME280;70766;53.170;18.160;2024-01-16T05:18:44;99801.99;;;-6.98;78.99
81299;BME280;70766;53.170;18.160;2024-01-16T05:21:13;99805.20;;;-7.03;78.74
81299;BME280;70766;53.170;18.160;2024-01-16T05:23:41;99807.92;;;-7.06;78.84
81299;BME280;70766;53.170;18.160;2024-01-16T05:26:12;99813.33;;;-7.12;78.85
81299;BME280;70766;53.170;18.160;2024-01-16T05:28:41;99816.20;;;-7.17;79.69
81299;BME280;70766;53.170;18.160;2024-01-16T05:31:09;99822.23;;;-7.20;80.00
81299;BME280;70766;53.170;18.160;2024-01-16T05:33:37;99824.10;;;-7.22;79.53
81299;BME280;70766;53.170;18.160;2024-01-16T05:36:09;99824.75;;;-7.27;79.64
81299;BME280;70766;53.170;18.160;2024-01-16T05:38:41;99826.70;;;-7.35;79.97
81299;BME280;70766;53.170;18.160;2024-01-16T05:41:09;99834.77;;;-7.44;79.86
81299;BME280;70766;53.170;18.160;2024-01-16T05:43:37;99838.59;;;-7.54;79.83
81299;BME280;70766;53.170;18.160;2024-01-16T05:46:10;99840.48;;;-7.62;82.08
81299;BME280;70766;53.170;18.160;2024-01-16T05:48:38;99843.68;;;-7.71;80.13
81299;BME280;70766;53.170;18.160;2024-01-16T05:51:12;99848.88;;;-7.80;80.10
81299;BME280;70766;53.170;18.160;2024-01-16T05:53:41;99852.91;;;-7.89;80.40
81299;BME280;70766;53.170;18.160;2024-01-16T05:56:10;99860.63;;;-7.96;80.90
81299;BME280;70766;53.170;18.160;2024-01-16T05:58:41;99864.90;;;-8.01;80.86
81299;BME280;70766;53.170;18.160;2024-01-16T06:01:11;99864.13;;;-8.06;82.04
81299;BME280;70766;53.170;18.160;2024-01-16T06:03:41;99868.88;;;-8.11;83.08
81299;BME280;70766;53.170;18.160;2024-01-16T06:06:13;99873.25;;;-8.13;83.42
81299;BME280;70766;53.170;18.160;2024-01-16T06:08:41;99879.41;;;-8.16;81.79
81299;BME280;70766;53.170;18.160;2024-01-16T06:11:13;99880.49;;;-8.19;82.68
81299;BME280;70766;53.170;18.160;2024-01-16T06:13:45;99883.73;;;-8.22;82.01
81299;BME280;70766;53.170;18.160;2024-01-16T06:16:13;99882.88;;;-8.26;82.35
81299;BME280;70766;53.170;18.160;2024-01-16T06:18:42;99893.38;;;-8.29;83.20
81299;BME280;70766;53.170;18.160;2024-01-16T06:21:10;99900.70;;;-8.32;82.85
81299;BME280;70766;53.170;18.160;2024-01-16T06:23:40;99907.62;;;-8.36;83.00
81299;BME280;70766;53.170;18.160;2024-01-16T06:26:08;99914.63;;;-8.41;84.08
81299;BME280;70766;53.170;18.160;2024-01-16T06:28:37;99922.48;;;-8.47;82.93
81299;BME280;70766;53.170;18.160;2024-01-16T06:31:06;99922.52;;;-8.52;82.27
81299;BME280;70766;53.170;18.160;2024-01-16T06:33:35;99920.80;;;-8.54;84.15
81299;BME280;70766;53.170;18.160;2024-01-16T06:36:07;99928.74;;;-8.54;84.37
81299;BME280;70766;53.170;18.160;2024-01-16T06:38:38;99932.88;;;-8.52;84.33
81299;BME280;70766;53.170;18.160;2024-01-16T06:41:07;99931.01;;;-8.50;84.17
81299;BME280;70766;53.170;18.160;2024-01-16T06:43:36;99936.88;;;-8.51;83.82
81299;BME280;70766;53.170;18.160;2024-01-16T06:46:04;99932.61;;;-8.54;83.61
81299;BME280;70766;53.170;18.160;2024-01-16T06:48:35;99932.32;;;-8.57;83.94
81299;BME280;70766;53.170;18.160;2024-01-16T06:51:05;99938.71;;;-8.59;84.89
81299;BME280;70766;53.170;18.160;2024-01-16T06:53:33;99941.47;;;-8.59;83.84
81299;BME280;70766;53.170;18.160;2024-01-16T06:56:03;99939.65;;;-8.55;84.37
81299;BME280;70766;53.170;18.160;2024-01-16T06:58:37;99944.17;;;-8.50;84.54
81299;BME280;70766;53.170;18.160;2024-01-16T07:01:05;99949.86;;;-8.45;84.40
81299;BME280;70766;53.170;18.160;2024-01-16T07:03:33;99948.91;;;-8.38;86.11
81299;BME280;70766;53.170;18.160;2024-01-16T07:06:01;99952.48;;;-8.30;87.24
81299;BME280;70766;53.170;18.160;2024-01-16T07:08:31;99957.55;;;-8.23;86.29
81299;BME280;70766;53.170;18.160;2024-01-16T07:10:59;99964.60;;;-8.14;86.82
81299;BME280;70766;53.170;18.160;2024-01-16T07:13:27;99968.95;;;-8.04;86.36
81299;BME280;70766;53.170;18.160;2024-01-16T07:15:55;99973.60;;;-7.95;86.75
81299;BME280;70766;53.170;18.160;2024-01-16T07:18:23;99977.02;;;-7.86;87.73
81299;BME280;70766;53.170;18.160;2024-01-16T07:20:52;99982.65;;;-7.77;87.01
81299;BME280;70766;53.170;18.160;2024-01-16T07:23:20;99986.91;;;-7.68;88.00
81299;BME280;70766;53.170;18.160;2024-01-16T07:25:48;99990.52;;;-7.59;87.45
81299;BME280;70766;53.170;18.160;2024-01-16T07:28:16;99993.63;;;-7.47;88.33
81299;BME280;70766;53.170;18.160;2024-01-16T07:30:44;99999.12;;;-7.34;88.00
81299;BME280;70766;53.170;18.160;2024-01-16T07:33:13;100000.30;;;-7.19;87.70
81299;BME280;70766;53.170;18.160;2024-01-16T07:35:41;100005.48;;;-7.07;87.21
81299;BME280;70766;53.170;18.160;2024-01-16T07:38:12;100008.48;;;-6.96;86.95
81299;BME280;70766;53.170;18.160;2024-01-16T07:40:40;100007.83;;;-6.80;87.09
81299;BME280;70766;53.170;18.160;2024-01-16T07:43:08;100006.76;;;-6.60;87.04
81299;BME280;70766;53.170;18.160;2024-01-16T07:45:37;100010.00;;;-6.31;87.61
81299;BME280;70766;53.170;18.160;2024-01-16T07:48:05;100007.26;;;-5.99;87.75
81299;BME280;70766;53.170;18.160;2024-01-16T07:50:34;100010.70;;;-5.66;87.27
81299;BME280;70766;53.170;18.160;2024-01-16T07:53:02;100017.10;;;-5.34;88.32
81299;BME280;70766;53.170;18.160;2024-01-16T07:55:31;100020.39;;;-5.05;88.16
81299;BME280;70766;53.170;18.160;2024-01-16T07:57:59;100018.98;;;-4.72;88.87
81299;BME280;70766;53.170;18.160;2024-01-16T08:00:27;100022.40;;;-4.39;88.12
81299;BME280;70766;53.170;18.160;2024-01-16T08:02:55;100026.84;;;-4.15;86.95
81299;BME280;70766;53.170;18.160;2024-01-16T08:05:23;100032.77;;;-4.02;87.76
81299;BME280;70766;53.170;18.160;2024-01-16T08:07:57;100033.31;;;-4.02;86.54
81299;BME280;70766;53.170;18.160;2024-01-16T08:10:25;100039.92;;;-3.97;87.03
81299;BME280;70766;53.170;18.160;2024-01-16T08:12:54;100042.47;;;-3.87;85.66
81299;BME280;70766;53.170;18.160;2024-01-16T08:15:22;100046.42;;;-3.69;87.08
81299;BME280;70766;53.170;18.160;2024-01-16T08:17:50;100048.19;;;-3.54;84.14
81299;BME280;70766;53.170;18.160;2024-01-16T08:20:18;100050.36;;;-3.31;86.13
81299;BME280;70766;53.170;18.160;2024-01-16T08:22:46;100047.92;;;-3.08;84.87
81299;BME280;70766;53.170;18.160;2024-01-16T08:25:14;100053.03;;;-2.86;85.15
81299;BME280;70766;53.170;18.160;2024-01-16T08:27:42;100058.41;;;-2.61;85.43
81299;BME280;70766;53.170;18.160;2024-01-16T08:30:11;100058.44;;;-2.46;82.71
81299;BME280;70766;53.170;18.160;2024-01-16T08:32:41;100065.12;;;-2.30;82.45
81299;BME280;70766;53.170;18.160;2024-01-16T08:35:09;100064.78;;;-2.32;75.44
81299;BME280;70766;53.170;18.160;2024-01-16T08:37:37;100063.03;;;-2.27;75.30
81299;BME280;70766;53.170;18.160;2024-01-16T08:40:06;100067.73;;;-2.15;75.49
81299;BME280;70766;53.170;18.160;2024-01-16T08:42:34;100070.41;;;-2.05;74.91
81299;BME280;70766;53.170;18.160;2024-01-16T08:45:03;100078.01;;;-1.93;72.35
81299;BME280;70766;53.170;18.160;2024-01-16T08:47:31;100080.09;;;-1.80;74.40
81299;BME280;70766;53.170;18.160;2024-01-16T08:49:59;100087.72;;;-1.50;75.06
81299;BME280;70766;53.170;18.160;2024-01-16T08:52:27;100089.55;;;-1.47;67.27
81299;BME280;70766;53.170;18.160;2024-01-16T08:54:55;100090.48;;;-1.28;71.35
81299;BME280;70766;53.170;18.160;2024-01-16T08:57:24;100087.88;;;-1.19;65.85
81299;BME280;70766;53.170;18.160;2024-01-16T08:59:55;100093.20;;;-1.02;65.88
81299;BME280;70766;53.170;18.160;2024-01-16T09:02:23;100093.10;;;-0.89;67.20
81299;BME280;70766;53.170;18.160;2024-01-16T09:04:58;100096.13;;;-0.83;64.18
81299;BME280;70766;53.170;18.160;2024-01-16T09:07:27;100098.24;;;-0.73;65.62
81299;BME280;70766;53.170;18.160;2024-01-16T09:09:55;100099.45;;;-0.70;63.04
81299;BME280;70766;53.170;18.160;2024-01-16T09:12:23;100104.63;;;-0.51;67.96
81299;BME280;70766;53.170;18.160;2024-01-16T09:14:52;100112.80;;;-0.16;68.76
81299;BME280;70766;53.170;18.160;2024-01-16T09:17:20;100119.39;;;0.09;69.77
81299;BME280;70766;53.170;18.160;2024-01-16T09:19:48;100121.28;;;0.11;67.59
81299;BME280;70766;53.170;18.160;2024-01-16T09:22:17;100127.31;;;-0.18;59.72
81299;BME280;70766;53.170;18.160;2024-01-16T09:24:46;100127.02;;;0.03;64.99
81299;BME280;70766;53.170;18.160;2024-01-16T09:27:14;100131.84;;;0.11;65.16
81299;BME280;70766;53.170;18.160;2024-01-16T09:29:44;100130.44;;;0.30;64.93
81299;BME280;70766;53.170;18.160;2024-01-16T09:32:12;100128.94;;;0.08;64.88
81299;BME280;70766;53.170;18.160;2024-01-16T09:34:41;100133.23;;;-0.48;66.74
81299;BME280;70766;53.170;18.160;2024-01-16T09:37:09;100143.62;;;-0.88;67.48
81299;BME280;70766;53.170;18.160;2024-01-16T09:39:37;100148.63;;;-0.94;65.41
81299;BME280;70766;53.170;18.160;2024-01-16T09:42:05;100146.88;;;-1.26;67.21
81299;BME280;70766;53.170;18.160;2024-01-16T09:44:34;100144.64;;;-1.42;69.04
81299;BME280;70766;53.170;18.160;2024-01-16T09:47:03;100150.02;;;-1.11;67.98
81299;BME280;70766;53.170;18.160;2024-01-16T09:49:33;100153.39;;;-1.39;67.29
81299;BME280;70766;53.170;18.160;2024-01-16T09:52:01;100155.74;;;-1.82;69.15
81299;BME280;70766;53.170;18.160;2024-01-16T09:54:30;100158.25;;;-1.78;68.18
81299;BME280;70766;53.170;18.160;2024-01-16T09:56:58;100164.42;;;-1.06;65.74
81299;BME280;70766;53.170;18.160;2024-01-16T09:59:28;100170.49;;;-0.41;66.32
81299;BME280;70766;53.170;18.160;2024-01-16T10:01:59;100171.61;;;-0.12;61.87
81299;BME280;70766;53.170;18.160;2024-01-16T10:04:29;100174.83;;;0.35;62.77
81299;BME280;70766;53.170;18.160;2024-01-16T10:07:02;100173.35;;;0.79;64.37
81299;BME280;70766;53.170;18.160;2024-01-16T10:09:32;100176.96;;;0.98;64.32
81299;BME280;70766;53.170;18.160;2024-01-16T10:12:01;100182.63;;;0.97;66.41
81299;BME280;70766;53.170;18.160;2024-01-16T10:14:32;100182.51;;;0.56;60.55
81299;BME280;70766;53.170;18.160;2024-01-16T10:17:02;100186.81;;;0.02;58.98
81299;BME280;70766;53.170;18.160;2024-01-16T10:19:46;100190.95;;;-0.48;60.48
81299;BME280;70766;53.170;18.160;2024-01-16T10:22:23;100196.55;;;-0.18;61.10
81299;BME280;70766;53.170;18.160;2024-01-16T10:25:08;100200.48;;;-0.40;57.75
81299;BME280;70766;53.170;18.160;2024-01-16T10:27:38;100200.22;;;-0.39;57.98
81299;BME280;70766;53.170;18.160;2024-01-16T10:30:12;100200.38;;;-0.35;57.36
81299;BME280;70766;53.170;18.160;2024-01-16T10:32:41;100200.35;;;-0.11;61.22
81299;BME280;70766;53.170;18.160;2024-01-16T10:35:17;100199.77;;;-0.04;61.92
81299;BME280;70766;53.170;18.160;2024-01-16T10:40:15;100205.77;;;-0.45;62.65
81299;BME280;70766;53.170;18.160;2024-01-16T10:42:45;100200.75;;;-0.44;60.80
81299;BME280;70766;53.170;18.160;2024-01-16T10:45:18;100199.15;;;-0.21;62.14
81299;BME280;70766;53.170;18.160;2024-01-16T10:47:47;100199.05;;;-0.10;61.94
81299;BME280;70766;53.170;18.160;2024-01-16T10:50:15;100202.40;;;-0.28;62.41
81299;BME280;70766;53.170;18.160;2024-01-16T10:52:47;100202.05;;;-0.50;62.69
81299;BME280;70766;53.170;18.160;2024-01-16T10:55:21;100203.57;;;-0.71;63.94
81299;BME280;70766;53.170;18.160;2024-01-16T10:57:51;100202.88;;;-0.87;63.85
81299;BME280;70766;53.170;18.160;2024-01-16T11:00:20;100208.33;;;-0.54;64.26
81299;BME280;70766;53.170;18.160;2024-01-16T11:02:58;100211.12;;;-0.21;60.39
81299;BME280;70766;53.170;18.160;2024-01-16T11:05:28;100206.00;;;0.08;60.02
81299;BME280;70766;53.170;18.160;2024-01-16T11:07:59;100205.01;;;0.28;57.79
81299;BME280;70766;53.170;18.160;2024-01-16T11:10:35;100201.75;;;0.29;59.64
81299;BME280;70766;53.170;18.160;2024-01-16T11:13:04;100204.67;;;0.49;59.64
81299;BME280;70766;53.170;18.160;2024-01-16T11:15:33;100211.55;;;0.41;57.58
81299;BME280;70766;53.170;18.160;2024-01-16T11:18:02;100213.89;;;0.83;59.73
81299;BME280;70766;53.170;18.160;2024-01-16T11:20:34;100216.42;;;1.29;61.50
81299;BME280;70766;53.170;18.160;2024-01-16T11:23:23;100214.11;;;1.52;61.58
81299;BME280;70766;53.170;18.160;2024-01-16T11:25:52;100219.36;;;1.47;62.09
81299;BME280;70766;53.170;18.160;2024-01-16T11:28:20;100221.41;;;1.03;61.45
81299;BME280;70766;53.170;18.160;2024-01-16T11:30:48;100218.57;;;0.64;61.53
81299;BME280;70766;53.170;18.160;2024-01-16T11:36:00;100225.60;;;0.46;61.45
81299;BME280;70766;53.170;18.160;2024-01-16T11:38:32;100227.99;;;0.22;60.19
81299;BME280;70766;53.170;18.160;2024-01-16T11:41:02;100233.98;;;0.00;61.23
81299;BME280;70766;53.170;18.160;2024-01-16T11:46:05;100237.10;;;-0.23;60.54
81299;BME280;70766;53.170;18.160;2024-01-16T11:48:35;100245.36;;;-0.15;58.44
81299;BME280;70766;53.170;18.160;2024-01-16T11:51:27;100243.21;;;-0.34;58.37
81299;BME280;70766;53.170;18.160;2024-01-16T11:53:55;100241.55;;;-1.05;58.01
81299;BME280;70766;53.170;18.160;2024-01-16T11:56:41;100240.05;;;-1.32;59.44
81299;BME280;70766;53.170;18.160;2024-01-16T11:59:57;100242.05;;;-1.24;59.51
81299;BME280;70766;53.170;18.160;2024-01-16T12:02:29;100247.11;;;-0.92;60.32
81299;BME280;70766;53.170;18.160;2024-01-16T12:04:57;100243.80;;;-0.81;58.83
81299;BME280;70766;53.170;18.160;2024-01-16T12:07:52;100244.39;;;-0.64;60.34
81299;BME280;70766;53.170;18.160;2024-01-16T12:10:23;100249.05;;;-0.33;60.12
81299;BME280;70766;53.170;18.160;2024-01-16T12:12:58;100249.83;;;-0.12;60.40
81299;BME280;70766;53.170;18.160;2024-01-16T12:15:31;100251.65;;;-0.12;60.35
81299;BME280;70766;53.170;18.160;2024-01-16T12:18:01;100250.62;;;-0.21;59.33
81299;BME280;70766;53.170;18.160;2024-01-16T12:20:31;100250.77;;;-0.02;61.34
81299;BME280;70766;53.170;18.160;2024-01-16T12:23:05;100249.36;;;0.13;59.39
81299;BME280;70766;53.170;18.160;2024-01-16T12:25:36;100252.27;;;0.20;59.71
81299;BME280;70766;53.170;18.160;2024-01-16T12:28:24;100254.31;;;-0.08;58.66
81299;BME280;70766;53.170;18.160;2024-01-16T12:31:00;100252.58;;;-0.27;58.88
81299;BME280;70766;53.170;18.160;2024-01-16T12:33:31;100257.06;;;-0.70;58.84
81299;BME280;70766;53.170;18.160;2024-01-16T12:36:01;100257.31;;;-1.10;59.07
81299;BME280;70766;53.170;18.160;2024-01-16T12:38:31;100251.89;;;-1.08;59.71
81299;BME280;70766;53.170;18.160;2024-01-16T12:41:00;100256.66;;;-1.18;58.70
81299;BME280;70766;53.170;18.160;2024-01-16T12:43:31;100262.27;;;-1.41;59.21
81299;BME280;70766;53.170;18.160;2024-01-16T12:46:00;100263.61;;;-1.10;59.93
81299;BME280;70766;53.170;18.160;2024-01-16T12:48:29;100269.33;;;-0.89;59.80
81299;BME280;70766;53.170;18.160;2024-01-16T12:51:02;100273.62;;;-0.74;61.15
81299;BME280;70766;53.170;18.160;2024-01-16T12:53:32;100277.64;;;-0.71;60.35
81299;BME280;70766;53.170;18.160;2024-01-16T12:56:05;100275.89;;;-0.79;60.85
81299;BME280;70766;53.170;18.160;2024-01-16T12:58:35;100277.36;;;-0.83;60.24
81299;BME280;70766;53.170;18.160;2024-01-16T13:01:24;100284.36;;;-0.98;59.72
81299;BME280;70766;53.170;18.160;2024-01-16T13:04:06;100284.43;;;-0.96;60.34
81299;BME280;70766;53.170;18.160;2024-01-16T13:06:36;100288.77;;;-1.05;60.37
81299;BME280;70766;53.170;18.160;2024-01-16T13:09:07;100295.41;;;-1.05;61.48